Time;durP1;ratioP1;P1;durP2;ratioP2;P2;SDS_P1;SDS_P2;PMS_P1;PMS_P2;Temp;Humidity;BMP_temperature;BMP_pressure;BME280_temperature;BME280_humidity;BME280_pressure;Samples;Min_cycle;Max_cycle;Signal;HPM_P1;HPM_P2
2023/09/22 05:49:14;;;;;;;40.20;11.52;;;25.10;98.70;;;;;;5009337;23;20065;-83
2023/09/22 05:52:19;;;;;;;30.88;9.68;;;25.40;98.70;;;;;;5011942;28;20122;-83
2023/09/22 05:55:24;;;;;;;32.75;10.55;;;25.00;98.70;;;;;;5000514;28;20084;-87
2023/09/22 05:58:28;;;;;;;38.75;10.00;;;25.70;98.80;;;;;;5012286;28;20049;-85
2023/09/22 06:01:36;;;;;;;38.53;11.40;;;26.00;98.20;;;;;;5013063;28;20056;-83
2023/09/22 06:04:40;;;;;;;36.85;10.30;;;25.80;97.80;;;;;;5012657;28;20041;-85
2023/09/22 06:07:44;;;;;;;38.03;11.23;;;26.10;97.80;;;;;;5012426;28;20049;-86
2023/09/22 06:10:49;;;;;;;34.05;10.40;;;26.40;97.60;;;;;;5011400;28;20061;-84
2023/09/22 06:13:53;;;;;;;49.58;10.60;;;26.60;97.00;;;;;;5013179;28;20049;-82
2023/09/22 06:16:57;;;;;;;41.75;12.52;;;26.40;97.00;;;;;;5000281;28;20053;-82
2023/09/22 06:20:13;;;;;;;43.80;12.18;;;26.30;97.00;;;;;;4998945;28;20053;-80
2023/09/22 06:23:20;;;;;;;44.10;10.70;;;26.30;97.00;;;;;;4998785;28;20397;-85
2023/09/22 06:26:24;;;;;;;38.58;10.48;;;26.40;97.20;;;;;;4998923;28;20049;-85
2023/09/22 06:29:28;;;;;;;52.13;11.65;;;26.60;96.70;;;;;;4999101;28;20057;-83
2023/09/22 06:32:32;;;;;;;36.60;9.82;;;26.70;96.30;;;;;;4999058;28;20052;-75
2023/09/22 06:35:36;;;;;;;43.95;10.50;;;26.60;96.30;;;;;;4998715;28;20061;-73
2023/09/22 06:38:40;;;;;;;46.20;10.93;;;26.50;96.70;;;;;;5011177;28;20504;-74
2023/09/22 06:41:45;;;;;;;41.10;10.15;;;26.50;96.60;;;;;;5010870;28;20049;-75
2023/09/22 06:44:49;;;;;;;36.65;10.57;;;26.40;96.50;;;;;;5011142;28;20044;-74
2023/09/22 06:47:53;;;;;;;28.08;10.60;;;26.40;96.70;;;;;;5019856;28;20048;-76
2023/09/22 06:50:58;;;;;;;33.95;10.52;;;26.40;96.70;;;;;;4991317;28;20077;-76
2023/09/22 06:54:04;;;;;;;27.13;10.07;;;26.40;96.70;;;;;;5010261;28;20057;-74
2023/09/22 06:57:10;;;;;;;27.13;9.13;;;26.40;96.80;;;;;;5010186;28;20118;-76
2023/09/22 07:00:22;;;;;;;40.47;11.38;;;26.40;96.80;;;;;;5009814;28;20456;-76
2023/09/22 07:03:29;;;;;;;31.38;10.32;;;26.40;96.60;;;;;;5010287;28;20623;-77
2023/09/22 07:06:36;;;;;;;32.13;10.65;;;26.40;96.60;;;;;;4997880;28;20057;-73
2023/09/22 07:09:43;;;;;;;37.28;11.07;;;26.40;96.60;;;;;;5000295;28;20126;-78
2023/09/22 07:12:50;;;;;;;54.20;13.00;;;26.50;96.60;;;;;;5012706;28;20045;-73
2023/09/22 07:15:57;;;;;;;32.33;10.50;;;26.50;96.60;;;;;;5013274;28;20049;-79
2023/09/22 07:19:01;;;;;;;37.95;10.68;;;26.50;96.70;;;;;;5012982;28;20496;-74
2023/09/22 07:22:08;;;;;;;39.70;10.77;;;26.50;97.00;;;;;;5013292;28;20056;-79
2023/09/22 07:25:13;;;;;;;45.53;11.05;;;26.50;97.30;;;;;;4990259;28;20041;-85
2023/09/22 07:28:17;;;;;;;50.40;11.73;;;26.60;97.10;;;;;;4989883;28;20052;-82
2023/09/22 07:31:21;;;;;;;32.67;9.55;;;26.60;96.70;;;;;;5013579;28;20057;-83
2023/09/22 07:34:25;;;;;;;32.28;10.07;;;26.60;96.80;;;;;;5013138;28;20104;-87
2023/09/22 07:37:30;;;;;;;37.45;10.68;;;26.70;97.10;;;;;;5013014;28;20045;-83
2023/09/22 07:40:33;;;;;;;38.85;10.25;;;26.70;96.60;;;;;;5012761;28;20052;-74
2023/09/22 07:43:37;;;;;;;45.08;10.40;;;26.80;96.40;;;;;;5012801;28;20400;-76
2023/09/22 07:46:41;;;;;;;47.10;11.98;;;26.80;96.30;;;;;;5012738;28;20060;-76
2023/09/22 07:49:46;;;;;;;41.87;12.07;;;27.10;96.20;;;;;;4964219;28;1203392;-79
2023/09/22 07:52:50;;;;;;;39.60;9.88;;;27.00;96.10;;;;;;5021421;28;20766;-75
2023/09/22 07:56:00;;;;;;;40.78;10.13;;;27.20;95.80;;;;;;5021403;28;20045;-78
2023/09/22 07:59:04;;;;;;;40.15;9.52;;;27.40;95.40;;;;;;5033534;28;20404;-80
2023/09/22 08:02:08;;;;;;;32.67;9.13;;;27.50;95.00;;;;;;5021485;28;20056;-79
2023/09/22 08:05:15;;;;;;;26.20;8.00;;;27.80;95.00;;;;;;5033568;28;20060;-80
2023/09/22 08:08:19;;;;;;;40.05;8.73;;;28.20;94.60;;;;;;5033583;28;20099;-78
2023/09/22 08:11:23;;;;;;;23.95;6.88;;;28.50;94.10;;;;;;5033416;28;20064;-78
2023/09/22 08:14:27;;;;;;;27.45;7.63;;;28.80;93.60;;;;;;5033213;28;20052;-78
2023/09/22 08:17:31;;;;;;;42.67;7.68;;;29.20;93.20;;;;;;5033206;28;20259;-78
2023/09/22 08:20:35;;;;;;;35.80;7.85;;;29.40;92.30;;;;;;5032843;28;20515;-79
2023/09/22 08:23:40;;;;;;;26.70;7.15;;;29.60;91.60;;;;;;5020802;28;20078;-78
2023/09/22 08:26:43;;;;;;;35.65;8.02;;;29.70;91.30;;;;;;5032995;28;20496;-79
2023/09/22 08:29:50;;;;;;;21.58;6.13;;;29.90;90.80;;;;;;5032884;28;20049;-79
2023/09/22 08:32:54;;;;;;;32.17;7.05;;;30.00;90.80;;;;;;5020679;28;20042;-78
2023/09/22 08:35:57;;;;;;;29.70;7.18;;;30.10;90.60;;;;;;5032804;28;20048;-77
2023/09/22 08:39:02;;;;;;;29.50;7.07;;;30.20;90.40;;;;;;5032718;28;20064;-79
2023/09/22 08:42:06;;;;;;;23.80;6.15;;;30.30;90.10;;;;;;5032630;28;20049;-79
2023/09/22 08:45:11;;;;;;;43.45;8.60;;;30.40;89.90;;;;;;5033165;28;20055;-82
2023/09/22 08:48:15;;;;;;;30.85;6.43;;;30.50;88.40;;;;;;5032745;28;20048;-79
2023/09/22 08:51:19;;;;;;;22.33;6.07;;;30.50;87.90;;;;;;5032656;28;20048;-79
2023/09/22 08:54:22;;;;;;;34.72;7.10;;;30.60;87.90;;;;;;5032692;28;20054;-79
2023/09/22 08:57:29;;;;;;;31.58;6.95;;;30.70;87.60;;;;;;5032256;28;20045;-79
2023/09/22 09:00:33;;;;;;;23.55;6.07;;;30.70;87.40;;;;;;5020195;28;20052;-79
2023/09/22 09:03:38;;;;;;;38.80;7.28;;;30.70;86.70;;;;;;5019909;28;20048;-79
2023/09/22 09:06:46;;;;;;;28.90;6.47;;;30.80;87.10;;;;;;5020224;28;20044;-80
2023/09/22 09:09:50;;;;;;;29.88;8.18;;;30.90;86.30;;;;;;5032033;28;20044;-79
2023/09/22 09:12:55;;;;;;;33.20;7.35;;;31.00;85.70;;;;;;5019709;28;20041;-79
2023/09/22 09:16:06;;;;;;;27.10;7.32;;;31.00;85.50;;;;;;5019407;28;20052;-75
2023/09/22 09:19:17;;;;;;;24.50;6.88;;;31.10;85.60;;;;;;5031763;28;20040;-74
2023/09/22 09:22:30;;;;;;;18.55;5.72;;;31.00;84.90;;;;;;5019748;28;20056;-78
2023/09/22 09:25:43;;;;;;;31.83;6.18;;;30.90;84.80;;;;;;5019471;28;20036;-76
2023/09/22 09:28:48;;;;;;;28.20;7.43;;;30.70;85.00;;;;;;5019572;28;20037;-73
2023/09/22 09:31:52;;;;;;;38.88;7.88;;;30.70;85.30;;;;;;5031403;28;20411;-75
2023/09/22 09:34:57;;;;;;;28.80;6.85;;;30.60;85.40;;;;;;5031484;28;20419;-78
2023/09/22 09:38:03;;;;;;;30.52;7.53;;;30.70;85.30;;;;;;5019150;28;20612;-77
2023/09/22 09:41:08;;;;;;;28.33;7.82;;;30.70;84.70;;;;;;5031460;28;20408;-78
2023/09/22 09:44:13;;;;;;;29.70;7.60;;;30.60;84.60;;;;;;5031202;28;20052;-77
2023/09/22 09:47:29;;;;;;;31.35;8.43;;;30.60;85.20;;;;;;5018825;28;20494;-77
2023/09/22 09:50:34;;;;;;;33.65;7.90;;;30.60;85.40;;;;;;5019044;28;20519;-76
2023/09/22 09:53:38;;;;;;;33.70;7.40;;;30.70;84.40;;;;;;5031256;28;20064;-80
2023/09/22 09:56:42;;;;;;;33.30;7.75;;;30.90;84.20;;;;;;5031505;28;20037;-77
2023/09/22 09:59:49;;;;;;;30.52;7.38;;;31.10;84.10;;;;;;5031320;28;20052;-77
2023/09/22 10:02:57;;;;;;;31.77;7.63;;;32.00;82.70;;;;;;5031137;28;20495;-76
2023/09/22 10:06:09;;;;;;;35.72;6.50;;;33.70;78.60;;;;;;5031455;28;20056;-77
2023/09/22 10:09:13;;;;;;;23.33;7.47;;;35.40;75.00;;;;;;5018932;28;20135;-79
2023/09/22 10:12:16;;;;;;;23.38;6.80;;;35.30;74.50;;;;;;5031187;28;20045;-75
2023/09/22 10:15:52;;;;;;;20.52;6.10;;;34.80;74.80;;;;;;5031090;28;20048;-76
2023/09/22 10:18:56;;;;;;;25.45;6.05;;;34.40;74.60;;;;;;5018651;28;20052;-76
2023/09/22 10:22:13;;;;;;;24.67;6.20;;;34.00;72.70;;;;;;5030210;28;20053;-76
2023/09/22 10:25:21;;;;;;;28.05;6.43;;;33.70;73.10;;;;;;5030591;28;20057;-76
2023/09/22 10:28:28;;;;;;;23.17;6.35;;;33.30;72.90;;;;;;5030789;28;20400;-75
2023/09/22 10:31:32;;;;;;;34.38;7.45;;;33.10;73.40;;;;;;5030685;28;20040;-76
2023/09/22 10:34:47;;;;;;;21.52;6.30;;;33.00;73.60;;;;;;5030493;28;20052;-75
2023/09/22 10:38:00;;;;;;;35.58;7.97;;;32.90;73.80;;;;;;5030678;28;20048;-75
2023/09/22 10:41:05;;;;;;;32.08;6.97;;;32.80;73.70;;;;;;5030927;28;20053;-75
2023/09/22 10:44:09;;;;;;;21.05;5.88;;;32.70;72.00;;;;;;5034771;28;20056;-76
2023/09/22 10:47:13;;;;;;;27.27;6.53;;;32.60;70.60;;;;;;5034597;28;20045;-74
2023/09/22 10:50:30;;;;;;;32.05;6.43;;;32.50;70.50;;;;;;5034574;28;20405;-75
2023/09/22 10:53:38;;;;;;;33.13;7.00;;;32.50;69.50;;;;;;5034346;28;20041;-76
2023/09/22 10:56:43;;;;;;;29.17;6.93;;;32.40;69.60;;;;;;5034734;28;20044;-76
2023/09/22 10:59:47;;;;;;;32.25;6.93;;;32.40;69.20;;;;;;5021787;28;20057;-76
2023/09/22 11:02:51;;;;;;;30.23;5.68;;;32.30;66.30;;;;;;5022180;28;20060;-76
2023/09/22 11:06:06;;;;;;;38.25;6.18;;;32.30;65.80;;;;;;5034238;28;20040;-75
2023/09/22 11:09:11;;;;;;;44.25;7.05;;;32.30;64.90;;;;;;5034317;28;20052;-76
2023/09/22 11:12:15;;;;;;;31.00;5.90;;;32.40;63.10;;;;;;5034341;28;20503;-76
2023/09/22 11:15:19;;;;;;;32.65;6.65;;;32.40;62.90;;;;;;5022118;28;20052;-77
2023/09/22 11:18:28;;;;;;;29.67;6.60;;;32.50;61.50;;;;;;5034327;28;20052;-75
2023/09/22 11:21:41;;;;;;;27.65;5.38;;;32.50;62.30;;;;;;5034066;28;20520;-76
2023/09/22 11:24:45;;;;;;;28.63;5.93;;;32.60;63.20;;;;;;5034297;28;20056;-76
2023/09/22 11:27:51;;;;;;;43.83;6.53;;;32.50;61.30;;;;;;5033958;28;20044;-76
2023/09/22 11:30:55;;;;;;;33.80;5.63;;;32.40;62.90;;;;;;5022165;28;20056;-75
2023/09/22 11:34:03;;;;;;;31.42;6.75;;;32.20;61.50;;;;;;5034015;28;20040;-76
2023/09/22 11:37:07;;;;;;;35.08;7.55;;;32.00;62.60;;;;;;5010565;28;20052;-76
2023/09/22 11:40:17;;;;;;;31.10;5.38;;;31.90;61.60;;;;;;5033556;28;20045;-75
2023/09/22 11:43:22;;;;;;;;;;;31.70;62.90;;;;;;5034343;28;20057;-75
2023/09/22 11:46:28;;;;;;;30.70;5.57;;;31.70;63.10;;;;;;5021523;28;19916;-75
2023/09/22 11:49:36;;;;;;;24.80;5.65;;;31.50;63.00;;;;;;5033215;28;20086;-75
2023/09/22 11:52:40;;;;;;;28.27;6.50;;;31.40;63.70;;;;;;5033283;28;20044;-75
2023/09/22 11:55:48;;;;;;;23.15;5.85;;;31.30;63.90;;;;;;5033678;28;20049;-75
2023/09/22 11:58:52;;;;;;;30.80;5.50;;;31.30;65.20;;;;;;5033878;28;20400;-74
2023/09/22 12:01:56;;;;;;;28.52;5.47;;;31.20;66.30;;;;;;5020970;28;20523;-76
2023/09/22 12:05:00;;;;;;;52.70;7.43;;;31.10;66.60;;;;;;5033577;28;20045;-76
2023/09/22 12:08:08;;;;;;;31.95;5.82;;;31.10;67.50;;;;;;5010001;28;20045;-76
2023/09/22 12:11:12;;;;;;;34.83;6.25;;;31.00;67.50;;;;;;5021131;28;20048;-76
2023/09/22 12:14:16;;;;;;;36.22;6.40;;;30.90;67.70;;;;;;5033393;28;20507;-76
2023/09/22 12:17:20;;;;;;;37.78;5.70;;;30.90;68.60;;;;;;5033268;28;20041;-76
2023/09/22 12:20:24;;;;;;;27.52;6.00;;;30.80;68.60;;;;;;5020869;28;20044;-75
2023/09/22 12:23:28;;;;;;;22.50;5.57;;;30.80;69.20;;;;;;5033385;28;20388;-75
2023/09/22 12:26:32;;;;;;;40.88;6.88;;;30.80;69.30;;;;;;5020631;28;20043;-76
2023/09/22 12:29:36;;;;;;;23.70;5.35;;;30.80;69.10;;;;;;5032761;28;20052;-76
2023/09/22 12:32:40;;;;;;;26.35;6.28;;;30.80;69.20;;;;;;5032537;28;20155;-76
2023/09/22 12:35:47;;;;;;;43.35;10.05;;;30.70;69.00;;;;;;5020237;28;20044;-77
2023/09/22 12:38:51;;;;;;;44.13;7.82;;;30.80;68.90;;;;;;5020404;28;20332;-78
2023/09/22 12:41:55;;;;;;;42.53;6.45;;;30.80;69.80;;;;;;5020053;28;20052;-77
2023/09/22 12:44:59;;;;;;;33.75;5.60;;;30.80;69.40;;;;;;5032400;28;20041;-77
2023/09/22 12:48:03;;;;;;;38.95;6.07;;;30.90;70.50;;;;;;5032721;28;20048;-77
2023/09/22 12:51:11;;;;;;;30.13;5.80;;;31.00;71.30;;;;;;5032075;28;20511;-77
2023/09/22 12:54:14;;;;;;;31.77;7.82;;;31.20;71.20;;;;;;5020053;28;20048;-77
2023/09/22 12:57:20;;;;;;;23.75;6.95;;;31.20;71.20;;;;;;5032895;28;20052;-75
2023/09/22 13:00:24;;;;;;;33.50;6.55;;;31.30;71.10;;;;;;5032287;28;20048;-77
2023/09/22 13:03:28;;;;;;;40.00;6.88;;;31.40;71.80;;;;;;5008156;28;20053;-76
2023/09/22 13:06:32;;;;;;;37.97;6.82;;;31.50;71.20;;;;;;5030000;28;20048;-75
2023/09/22 13:09:37;;;;;;;34.40;6.53;;;32.30;69.80;;;;;;5032200;28;20048;-75
2023/09/22 13:12:42;;;;;;;31.80;5.40;;;33.10;68.80;;;;;;5019758;28;20040;-79
2023/09/22 13:15:48;;;;;;;42.22;6.85;;;33.70;67.90;;;;;;5019612;28;20040;-74
2023/09/22 13:18:53;;;;;;;32.15;7.40;;;34.20;66.60;;;;;;5031919;28;20068;-72
2023/09/22 13:21:57;;;;;;;37.22;6.57;;;34.40;65.70;;;;;;5031757;28;20067;-72
2023/09/22 13:25:01;;;;;;;41.65;7.43;;;34.30;66.50;;;;;;5031751;28;20495;-73
2023/09/22 13:28:06;;;;;;;31.63;5.97;;;34.40;66.50;;;;;;5008535;28;20052;-79
2023/09/22 13:31:10;;;;;;;39.88;7.15;;;34.30;66.80;;;;;;5019489;28;20052;-80
2023/09/22 13:34:15;;;;;;;36.67;6.22;;;34.40;67.70;;;;;;5031491;28;20056;-86
2023/09/22 13:37:19;;;;;;;35.58;5.88;;;34.60;67.20;;;;;;5031631;28;20044;-81
2023/09/22 13:40:22;;;;;;;41.15;6.60;;;34.60;67.10;;;;;;5019553;28;20060;-78
2023/09/22 13:43:28;;;;;;;33.08;6.03;;;34.80;67.50;;;;;;5018863;28;20049;-76
2023/09/22 13:46:33;;;;;;;46.83;7.40;;;34.90;67.20;;;;;;5029799;28;20049;-76
2023/09/22 13:49:37;;;;;;;27.00;6.15;;;34.80;67.60;;;;;;5030316;28;20068;-80
2023/09/22 13:52:44;;;;;;;32.95;6.13;;;34.60;68.20;;;;;;5018362;28;20044;-77
2023/09/22 13:55:49;;;;;;;35.85;5.88;;;35.00;68.50;;;;;;5030840;28;20064;-78
2023/09/22 13:58:53;;;;;;;32.60;7.30;;;35.00;68.40;;;;;;5031447;28;20048;-79
2023/09/22 14:01:57;;;;;;;34.72;6.60;;;34.80;69.00;;;;;;5031241;28;20056;-78
2023/09/22 14:05:01;;;;;;;45.20;6.90;;;34.10;70.10;;;;;;5019233;28;20499;-78
2023/09/22 14:08:05;;;;;;;31.67;6.85;;;33.50;71.90;;;;;;5019356;28;20056;-81
2023/09/22 14:11:11;;;;;;;30.48;6.28;;;32.90;73.20;;;;;;5031766;28;20413;-82
2023/09/22 14:14:15;;;;;;;26.42;7.03;;;32.50;73.60;;;;;;5029162;28;20041;-83
2023/09/22 14:17:19;;;;;;;26.50;6.32;;;32.20;74.50;;;;;;5028151;28;20044;-82
2023/09/22 14:20:23;;;;;;;32.58;6.00;;;31.90;75.20;;;;;;5005279;28;20041;-82
2023/09/22 14:23:27;;;;;;;40.13;7.38;;;31.70;76.60;;;;;;5005355;28;20056;-83
2023/09/22 14:26:31;;;;;;;34.92;7.35;;;31.50;77.10;;;;;;5005578;28;20048;-81
2023/09/22 14:29:38;;;;;;;43.78;7.13;;;31.40;77.70;;;;;;5030244;28;20052;-83
2023/09/22 14:32:42;;;;;;;39.75;7.00;;;31.40;77.90;;;;;;5019006;28;20072;-84
2023/09/22 14:35:46;;;;;;;38.38;7.15;;;31.30;78.40;;;;;;5031328;28;20048;-82
2023/09/22 14:38:51;;;;;;;30.35;6.35;;;31.30;78.60;;;;;;5018010;28;20499;-83
2023/09/22 14:41:55;;;;;;;40.78;8.48;;;31.20;78.20;;;;;;5029980;28;20456;-83
2023/09/22 14:44:59;;;;;;;42.53;7.15;;;31.20;78.70;;;;;;5029699;28;20053;-83
2023/09/22 14:48:05;;;;;;;23.35;6.38;;;31.10;79.40;;;;;;5030385;28;20044;-83
2023/09/22 14:51:09;;;;;;;37.38;7.82;;;31.10;79.80;;;;;;5029886;28;20072;-82
2023/09/22 14:54:13;;;;;;;30.73;6.88;;;31.00;81.00;;;;;;5029705;28;20048;-83
2023/09/22 14:57:18;;;;;;;31.55;7.13;;;31.00;81.80;;;;;;5029965;28;20048;-83
2023/09/22 15:00:21;;;;;;;37.97;7.70;;;30.90;82.60;;;;;;5029699;28;20049;-81
2023/09/22 15:03:29;;;;;;;34.85;7.65;;;30.90;83.60;;;;;;5030443;28;20041;-83
2023/09/22 15:06:33;;;;;;;33.17;6.90;;;30.80;83.90;;;;;;5018704;28;20053;-83
2023/09/22 15:09:37;;;;;;;40.58;6.75;;;30.70;84.30;;;;;;5031015;28;20045;-85
2023/09/22 15:12:42;;;;;;;37.28;6.93;;;30.60;84.10;;;;;;5030702;28;20053;-84
2023/09/22 15:15:46;;;;;;;24.50;6.13;;;30.50;83.70;;;;;;5031116;28;20052;-85
2023/09/22 15:18:51;;;;;;;34.65;7.65;;;30.50;83.50;;;;;;5030689;28;20068;-83
2023/09/22 15:21:55;;;;;;;30.90;8.07;;;30.50;84.10;;;;;;5018809;28;20072;-83
2023/09/22 15:24:59;;;;;;;37.00;8.07;;;30.50;84.40;;;;;;5007841;28;20440;-84
2023/09/22 15:28:03;;;;;;;45.00;9.07;;;30.50;84.70;;;;;;5031195;28;20053;-84
2023/09/22 15:31:10;;;;;;;35.40;6.97;;;30.40;85.00;;;;;;5033869;28;20068;-84
2023/09/22 15:34:14;;;;;;;41.88;8.88;;;30.40;85.10;;;;;;5034524;28;20045;-84
2023/09/22 15:37:18;;;;;;;29.90;6.25;;;30.40;85.50;;;;;;5021999;28;20048;-82
2023/09/22 15:40:22;;;;;;;34.92;8.95;;;30.30;85.70;;;;;;5023141;28;20041;-85
2023/09/22 15:43:27;;;;;;;27.77;7.13;;;30.20;85.40;;;;;;5034389;28;20052;-85
2023/09/22 15:46:31;;;;;;;33.75;7.10;;;30.20;85.60;;;;;;5033017;28;20393;-84
2023/09/22 15:49:35;;;;;;;30.23;6.75;;;30.10;85.80;;;;;;5019604;28;20049;-84
2023/09/22 15:52:39;;;;;;;38.35;8.07;;;30.10;86.20;;;;;;5032754;28;20045;-81
2023/09/22 15:55:43;;;;;;;37.60;7.63;;;30.00;86.50;;;;;;5009600;28;20064;-83
2023/09/22 15:58:48;;;;;;;42.78;8.30;;;30.00;86.60;;;;;;5033927;28;20040;-83
2023/09/22 16:01:52;;;;;;;30.45;7.20;;;29.90;86.80;;;;;;5021283;28;20048;-84
2023/09/22 16:04:56;;;;;;;40.85;7.25;;;29.90;86.80;;;;;;5033712;28;20048;-83
2023/09/22 16:08:01;;;;;;;37.45;7.85;;;29.80;87.10;;;;;;5010064;28;20040;-84
2023/09/22 16:11:10;;;;;;;46.70;8.40;;;29.80;87.60;;;;;;5033570;28;20052;-84
2023/09/22 16:14:14;;;;;;;38.97;8.50;;;29.70;88.50;;;;;;5021149;28;20413;-83
2023/09/22 16:17:19;;;;;;;34.40;8.18;;;29.60;89.00;;;;;;5033409;28;20040;-84
2023/09/22 16:20:23;;;;;;;42.03;8.45;;;29.60;89.20;;;;;;5021434;28;20400;-80
2023/09/22 16:23:27;;;;;;;36.92;7.60;;;29.60;89.50;;;;;;5033385;28;20523;-82
2023/09/22 16:26:31;;;;;;;37.55;6.90;;;29.50;89.40;;;;;;5021212;28;20057;-85
2023/09/22 16:29:35;;;;;;;35.90;7.97;;;29.50;89.20;;;;;;5034404;28;20500;-82
2023/09/22 16:32:39;;;;;;;45.63;8.48;;;29.90;88.90;;;;;;5035076;28;20048;-84
2023/09/22 16:35:43;;;;;;;32.03;7.53;;;30.90;86.70;;;;;;5032933;28;20053;-83
2023/09/22 16:38:48;;;;;;;43.72;7.82;;;31.70;84.60;;;;;;5032690;28;20049;-81
2023/09/22 16:41:52;;;;;;;36.50;7.60;;;32.50;82.80;;;;;;5032896;28;20060;-79
2023/09/22 16:44:56;;;;;;;42.88;8.95;;;33.00;82.00;;;;;;5020371;28;20060;-78
2023/09/22 16:48:00;;;;;;;50.35;9.65;;;32.50;81.90;;;;;;5032502;28;20048;-77
2023/09/22 16:51:05;;;;;;;53.15;9.68;;;31.60;84.00;;;;;;5031504;28;20052;-77
2023/09/22 16:54:09;;;;;;;45.15;9.43;;;30.90;86.00;;;;;;5031646;28;20053;-77
2023/09/22 16:57:13;;;;;;;58.90;11.73;;;30.40;87.20;;;;;;5020010;28;20075;-75
2023/09/22 17:00:17;;;;;;;60.00;10.40;;;30.00;88.40;;;;;;5032504;28;20048;-77
2023/09/22 17:03:21;;;;;;;40.67;8.77;;;29.70;89.00;;;;;;5032121;28;20040;-77
2023/09/22 17:06:25;;;;;;;38.22;8.05;;;29.50;89.20;;;;;;5019952;28;20041;-76
2023/09/22 17:09:29;;;;;;;29.73;7.47;;;29.40;89.70;;;;;;5032519;28;20056;-77
2023/09/22 17:12:33;;;;;;;41.25;9.43;;;29.30;89.90;;;;;;5032236;28;20052;-76
2023/09/22 17:15:41;;;;;;;44.20;8.40;;;29.20;90.00;;;;;;5032088;28;20392;-77
2023/09/22 17:18:48;;;;;;;43.72;9.32;;;29.10;90.30;;;;;;5031695;28;20040;-77
2023/09/22 17:21:51;;;;;;;32.28;8.25;;;29.10;90.40;;;;;;5031676;28;20065;-77
2023/09/22 17:24:56;;;;;;;44.47;9.07;;;29.00;90.60;;;;;;5031780;28;20041;-77
2023/09/22 17:28:00;;;;;;;40.53;9.43;;;29.00;90.70;;;;;;5031618;28;20041;-77
2023/09/22 17:31:04;;;;;;;44.13;10.02;;;29.00;90.80;;;;;;5031613;28;20048;-77
2023/09/22 17:34:08;;;;;;;43.58;9.73;;;28.90;91.00;;;;;;5031673;28;20060;-77
2023/09/22 17:37:13;;;;;;;50.80;11.07;;;28.80;90.90;;;;;;5031620;28;20389;-77
2023/09/22 17:40:17;;;;;;;45.40;12.45;;;28.90;90.80;;;;;;5031227;28;20404;-77
2023/09/22 17:43:21;;;;;;;44.40;8.68;;;28.80;90.70;;;;;;5031429;28;20049;-76
2023/09/22 17:46:26;;;;;;;40.90;10.20;;;28.60;90.80;;;;;;5031514;28;20044;-76
2023/09/22 17:49:30;;;;;;;33.60;9.15;;;28.50;91.10;;;;;;5035667;28;20045;-76
2023/09/22 17:52:34;;;;;;;37.83;8.88;;;28.30;91.50;;;;;;5031168;28;20040;-75
2023/09/22 17:55:38;;;;;;;43.50;8.43;;;28.30;91.60;;;;;;5031360;28;20105;-76
2023/09/22 17:58:42;;;;;;;44.58;8.93;;;28.20;91.90;;;;;;5030957;28;20507;-76
2023/09/22 18:01:51;;;;;;;46.30;9.55;;;28.20;92.00;;;;;;5031255;28;20523;-76
2023/09/22 18:04:54;;;;;;;40.75;9.82;;;28.20;92.00;;;;;;5031502;28;20045;-76
2023/09/22 18:07:58;;;;;;;42.53;10.63;;;28.10;92.10;;;;;;5031353;28;20060;-76
2023/09/22 18:11:02;;;;;;;41.30;10.18;;;28.00;92.20;;;;;;5031033;28;20044;-77
2023/09/22 18:14:06;;;;;;;44.80;9.40;;;28.00;92.30;;;;;;5031154;28;20559;-76
2023/09/22 18:17:10;;;;;;;45.83;10.13;;;27.90;92.20;;;;;;5030948;28;20048;-77
2023/09/22 18:20:14;;;;;;;51.63;10.30;;;27.90;92.20;;;;;;5031049;28;20437;-76
2023/09/22 18:23:19;;;;;;;48.97;10.93;;;28.20;91.70;;;;;;5030928;28;20155;-76
2023/09/22 18:26:26;;;;;;;41.30;10.52;;;27.70;91.70;;;;;;5031111;28;20037;-76
2023/09/22 18:29:31;;;;;;;30.23;9.02;;;27.60;91.80;;;;;;5031175;28;20397;-76
2023/09/22 18:32:35;;;;;;;35.92;9.23;;;27.70;90.80;;;;;;5031186;28;20037;-77
2023/09/22 18:35:39;;;;;;;36.03;8.70;;;27.70;91.00;;;;;;5031157;28;20045;-76
2023/09/22 18:38:43;;;;;;;47.78;10.98;;;27.70;90.80;;;;;;5030985;28;20045;-76
2023/09/22 18:41:47;;;;;;;53.60;10.63;;;27.70;90.70;;;;;;5030761;28;20496;-75
2023/09/22 18:44:51;;;;;;;36.63;9.60;;;27.70;90.60;;;;;;5031051;28;20053;-76
2023/09/22 18:47:55;;;;;;;32.03;9.50;;;27.70;90.50;;;;;;5030710;28;20140;-76
2023/09/22 18:51:04;;;;;;;37.22;10.05;;;27.70;90.60;;;;;;5030721;28;20518;-76
2023/09/22 18:54:08;;;;;;;43.95;10.40;;;27.70;90.50;;;;;;5030896;28;20571;-76
2023/09/22 18:57:12;;;;;;;32.72;10.65;;;27.70;90.50;;;;;;5030683;28;20044;-76
2023/09/22 19:00:17;;;;;;;35.22;11.63;;;27.70;90.60;;;;;;5030644;28;20045;-75
2023/09/22 19:03:21;;;;;;;43.10;12.25;;;27.60;90.80;;;;;;5031662;28;20511;-76
2023/09/22 19:06:28;;;;;;;42.22;10.88;;;27.70;90.90;;;;;;5034788;28;20040;-76
2023/09/22 19:09:33;;;;;;;51.55;12.50;;;27.60;90.90;;;;;;5034634;28;20044;-76
2023/09/22 19:12:37;;;;;;;54.05;13.95;;;27.70;91.00;;;;;;5034673;28;20503;-76
2023/09/22 19:15:44;;;;;;;45.13;13.23;;;27.70;91.00;;;;;;5034568;28;20044;-76
2023/09/22 19:18:49;;;;;;;38.55;12.52;;;27.70;90.90;;;;;;5022175;28;20049;-76
2023/09/22 19:21:53;;;;;;;46.60;12.88;;;27.70;91.00;;;;;;5022192;28;20392;-76
2023/09/22 19:24:57;;;;;;;43.35;12.65;;;27.60;91.20;;;;;;5034521;28;20052;-76
2023/09/22 19:28:03;;;;;;;43.33;13.27;;;27.60;91.20;;;;;;5034165;28;20148;-76
2023/09/22 19:31:08;;;;;;;48.78;13.02;;;27.60;91.20;;;;;;5022161;28;20393;-76
2023/09/22 19:34:12;;;;;;;47.35;13.13;;;27.50;91.30;;;;;;5022217;28;20041;-76
2023/09/22 19:37:17;;;;;;;52.28;12.95;;;27.50;91.50;;;;;;5033949;28;20496;-76
2023/09/22 19:40:21;;;;;;;42.72;13.63;;;27.50;91.40;;;;;;5022818;28;20404;-76
2023/09/22 19:43:25;;;;;;;46.20;13.85;;;27.40;91.60;;;;;;5033768;28;20080;-76
2023/09/22 19:46:30;;;;;;;56.85;14.07;;;27.40;91.70;;;;;;5033888;28;20064;-76
2023/09/22 19:49:34;;;;;;;48.92;11.82;;;27.30;91.80;;;;;;5033506;28;20405;-75
2023/09/22 19:52:40;;;;;;;47.78;13.68;;;27.30;91.90;;;;;;5021745;28;20052;-76
2023/09/22 19:55:44;;;;;;;50.75;13.07;;;27.30;92.00;;;;;;5033579;28;20053;-76
2023/09/22 19:58:48;;;;;;;48.63;13.55;;;27.20;92.10;;;;;;5033840;28;20389;-76
2023/09/22 20:01:53;;;;;;;47.15;12.52;;;27.10;92.40;;;;;;5033832;28;20068;-77
2023/09/22 20:04:58;;;;;;;43.17;13.48;;;27.20;92.40;;;;;;5033780;28;20408;-76
2023/09/22 20:08:03;;;;;;;42.17;12.48;;;28.50;92.60;;;;;;5033604;28;20044;-76
2023/09/22 20:11:09;;;;;;;40.95;12.75;;;27.00;92.30;;;;;;5021364;28;20044;-76
2023/09/22 20:14:14;;;;;;;41.78;13.60;;;27.00;92.50;;;;;;5033147;28;20051;-77
2023/09/22 20:17:21;;;;;;;59.55;14.73;;;27.00;92.60;;;;;;5033171;28;20400;-77
2023/09/22 20:20:25;;;;;;;51.92;14.02;;;27.00;92.70;;;;;;5033330;28;20127;-76
2023/09/22 20:23:48;;;;;;;44.13;14.20;;;27.10;92.50;;;;;;5020888;28;20048;-76
2023/09/22 20:26:52;;;;;;;41.05;13.82;;;27.10;92.50;;;;;;5033155;28;20388;-76
2023/09/22 20:29:57;;;;;;;49.47;14.93;;;27.10;92.50;;;;;;5033277;28;20518;-76
2023/09/22 20:33:01;;;;;;;50.60;13.52;;;27.10;92.60;;;;;;5033073;28;20100;-76
2023/09/22 20:36:12;;;;;;;49.05;14.45;;;27.00;92.40;;;;;;5033055;28;20052;-76
2023/09/22 20:39:16;;;;;;;45.40;13.70;;;27.00;92.50;;;;;;5020945;28;20052;-76
2023/09/22 20:42:20;;;;;;;42.00;13.45;;;27.00;92.50;;;;;;5032899;28;20056;-76
2023/09/22 20:45:24;;;;;;;46.38;13.43;;;27.10;92.70;;;;;;5033047;28;20049;-76
2023/09/22 20:48:30;;;;;;;43.83;13.20;;;27.00;92.70;;;;;;5020563;28;20097;-76
2023/09/22 20:51:34;;;;;;;46.50;15.00;;;27.00;92.90;;;;;;5020578;28;20057;-76
2023/09/22 20:54:39;;;;;;;42.13;12.57;;;27.00;93.00;;;;;;5009263;28;20053;-75
2023/09/22 20:57:47;;;;;;;63.20;14.57;;;27.00;93.10;;;;;;5032621;28;20049;-76
2023/09/22 21:00:51;;;;;;;51.97;14.40;;;26.80;93.30;;;;;;5032648;28;20397;-76
2023/09/22 21:03:56;;;;;;;41.15;14.63;;;26.80;93.50;;;;;;5019994;28;20527;-77
2023/09/22 21:07:05;;;;;;;53.92;13.85;;;26.70;93.50;;;;;;5020831;28;20048;-76
2023/09/22 21:10:09;;;;;;;40.35;13.45;;;26.60;92.90;;;;;;5020215;28;20053;-76
2023/09/22 21:13:13;;;;;;;46.80;15.30;;;26.60;93.00;;;;;;5032329;28;20044;-76
2023/09/22 21:16:17;;;;;;;39.50;13.52;;;26.60;93.00;;;;;;5032292;28;20045;-76
2023/09/22 21:19:21;;;;;;;44.72;12.95;;;26.50;93.10;;;;;;5032048;28;20044;-76
2023/09/22 21:22:29;;;;;;;52.58;14.60;;;26.60;93.10;;;;;;5031955;28;20048;-76
2023/09/22 21:25:35;;;;;;;50.40;15.27;;;26.80;93.30;;;;;;5031324;28;20101;-77
2023/09/22 21:28:40;;;;;;;38.05;12.68;;;26.10;93.30;;;;;;5031564;28;20041;-77
2023/09/22 21:31:44;;;;;;;41.80;14.48;;;25.60;93.10;;;;;;5031888;28;20057;-76
2023/09/22 21:34:48;;;;;;;47.22;14.27;;;26.20;92.80;;;;;;5031845;28;20045;-76